Gt Bend, New York
Current Conditions -  °F | °C
As of 10:58 PM on Sunday 19 Oct 2014 (Local Time) from KGTB Reporting Station
Few Clouds Few Clouds  
Wind Chill:   Ceiling: Unl
Heat Index:   Visibility: 10mi
Dew Point: -2°   Wind: 3mph
Humidity: 81%   Direction: 180°S
Pressure: 30.01"   Gusts: NA
Location:  44.0344°N, 75.7193°W
Report Text: KGTB 200258Z AUTO 18003KT 10SM FEW220 01/M02 A3001 RMK AO2 SLP170 T00061024 57005
Loading
Personal Weather Stations






























Interactive Weather Map
Tropical Storm Tracking
New forecast layout! Learn more

10-Day Weather Forecast

Advertisements
Track Severe Weather on mobile